Time;durP1;ratioP1;P1;durP2;ratioP2;P2;SDS_P1;SDS_P2;PMS_P1;PMS_P2;Temp;Humidity;BMP_temperature;BMP_pressure;BME280_temperature;BME280_humidity;BME280_pressure;Samples;Min_cycle;Max_cycle;Signal;HPM_P1;HPM_P2
2022/10/05 00:00:54;;;;;;;6.80;6.20;;;;;;;10.21;100.00;96087.41;5057440;28;20278;-79
2022/10/05 00:03:21;;;;;;;10.20;6.53;;;;;;;10.17;100.00;96080.84;5052243;28;20188;-79
2022/10/05 00:05:46;;;;;;;6.73;6.03;;;;;;;10.24;100.00;96085.53;5059871;28;20473;-79
2022/10/05 00:08:15;;;;;;;7.80;5.70;;;;;;;10.17;100.00;96080.84;5057258;28;20236;-79
2022/10/05 00:10:41;;;;;;;7.37;6.30;;;;;;;10.15;100.00;96081.91;5060514;28;20177;-79
2022/10/05 00:13:15;;;;;;;7.93;6.00;;;;;;;10.09;100.00;96080.69;5047166;28;20214;-79
2022/10/05 00:15:41;;;;;;;8.10;7.13;;;;;;;10.05;100.00;96075.88;5058351;28;20190;-79
2022/10/05 00:18:25;;;;;;;10.20;5.83;;;;;;;10.04;100.00;96069.06;5055083;28;20213;-78
2022/10/05 00:20:50;;;;;;;9.00;6.00;;;;;;;10.00;100.00;96070.28;5075915;28;20209;-79
2022/10/05 00:23:26;;;;;;;5.93;5.37;;;;;;;10.01;100.00;96064.97;5076021;28;20185;-79
2022/10/05 00:25:51;;;;;;;7.30;6.03;;;;;;;9.99;100.00;96072.06;5071567;28;20212;-79
2022/10/05 00:28:20;;;;;;;6.13;5.53;;;;;;;9.98;100.00;96072.97;5063854;28;20201;-79
2022/10/05 00:30:46;;;;;;;5.73;5.17;;;;;;;9.94;100.00;96079.41;5067056;28;20189;-79
2022/10/05 00:33:11;;;;;;;6.83;6.13;;;;;;;9.84;100.00;96071.56;5064018;28;20189;-79
2022/10/05 00:35:36;;;;;;;7.37;5.80;;;;;;;9.78;100.00;96064.31;5044906;28;20955;-79
2022/10/05 00:38:02;;;;;;;6.87;5.67;;;;;;;9.82;100.00;96067.47;5075437;28;20225;-79
2022/10/05 00:41:08;;;;;;;5.80;5.30;;;;;;;9.82;100.00;96072.66;5059219;28;20250;-79
2022/10/05 00:43:44;;;;;;;8.23;5.47;;;;;;;9.76;100.00;96070.59;5072212;28;20201;-79
2022/10/05 00:46:18;;;;;;;6.60;5.37;;;;;;;9.80;100.00;96069.34;5065019;28;20640;-79
2022/10/05 00:49:03;;;;;;;7.80;5.03;;;;;;;9.79;100.00;96065.13;5070774;28;20684;-79
2022/10/05 00:51:30;;;;;;;7.00;5.07;;;;;;;9.86;100.00;96068.84;5046930;28;20178;-78
2022/10/05 00:54:34;;;;;;;5.70;5.10;;;;;;;9.97;100.00;96068.75;5070353;28;20735;-79
2022/10/05 00:57:14;;;;;;;5.10;4.60;;;;;;;9.99;100.00;96066.88;5053827;28;20216;-79
2022/10/05 00:59:58;;;;;;;5.77;4.60;;;;;;;10.04;100.00;96074.25;5064838;28;20578;-78
2022/10/05 01:02:58;;;;;;;8.20;4.87;;;;;;;10.09;100.00;96077.28;5064050;28;20224;-78
2022/10/05 01:05:57;;;;;;;6.23;4.47;;;;;;;9.96;100.00;96081.84;5046107;28;20284;-79
2022/10/05 01:08:47;;;;;;;8.33;4.77;;;;;;;9.89;100.00;96072.03;5075649;28;20209;-79
2022/10/05 01:11:37;;;;;;;4.97;4.57;;;;;;;9.78;100.00;96072.09;5054669;28;20280;-79
2022/10/05 01:14:14;;;;;;;5.07;4.50;;;;;;;9.55;100.00;96070.63;5065644;28;20709;-79
2022/10/05 01:17:04;;;;;;;5.70;4.17;;;;;;;9.35;100.00;96067.09;5062375;28;20197;-79
2022/10/05 01:19:49;;;;;;;5.43;4.60;;;;;;;9.24;100.00;96067.97;5053070;28;20284;-78
2022/10/05 01:22:45;;;;;;;4.73;4.33;;;;;;;9.39;100.00;96067.66;5058217;28;20221;-79
2022/10/05 01:25:27;;;;;;;5.37;4.33;;;;;;;9.42;100.00;96062.22;5056849;28;20216;-79
2022/10/05 01:27:59;;;;;;;5.80;4.57;;;;;;;9.49;100.00;96068.53;5067242;28;20220;-79
2022/10/05 01:30:25;;;;;;;5.50;5.00;;;;;;;9.50;100.00;96065.00;5065340;28;20186;-79
2022/10/05 01:33:14;;;;;;;6.03;4.17;;;;;;;9.52;100.00;96058.72;5061675;28;20668;-80
2022/10/05 01:35:56;;;;;;;4.57;4.17;;;;;;;9.49;99.79;96052.97;5071208;28;20234;-79
2022/10/05 01:38:49;;;;;;;5.57;4.23;;;;;;;9.44;99.50;96055.13;5073698;28;20220;-79
2022/10/05 01:41:27;;;;;;;4.23;3.87;;;;;;;9.43;99.42;96050.91;5057353;28;20696;-79
2022/10/05 01:44:07;;;;;;;4.27;3.87;;;;;;;9.36;99.32;96048.84;5072149;28;20675;-79
2022/10/05 01:46:37;;;;;;;5.43;4.10;;;;;;;9.38;98.88;96053.06;5067340;28;20195;-79
2022/10/05 01:49:22;;;;;;;4.23;3.77;;;;;;;9.30;98.40;96053.69;5056413;28;20676;-80
2022/10/05 01:52:17;;;;;;;4.63;3.93;;;;;;;9.28;98.79;96050.41;5071662;28;20598;-79
2022/10/05 01:55:19;;;;;;;4.90;3.53;;;;;;;9.29;98.98;96039.91;5071575;28;20196;-79
2022/10/05 01:58:16;;;;;;;4.43;3.70;;;;;;;9.29;98.62;96036.50;5064292;28;20622;-80
2022/10/05 02:00:54;;;;;;;3.83;3.53;;;;;;;9.27;99.06;96041.78;5060341;28;20763;-79
2022/10/05 02:03:24;;;;;;;6.43;3.90;;;;;;;9.29;98.70;96032.16;5072075;28;20272;-79
2022/10/05 02:05:57;;;;;;;4.40;3.53;;;;;;;9.27;98.57;96038.38;5056098;28;20193;-80
2022/10/05 02:08:27;;;;;;;6.13;3.60;;;;;;;9.22;99.32;96036.19;5056426;28;20579;-79
2022/10/05 02:11:01;;;;;;;3.70;3.40;;;;;;;9.24;98.23;96029.09;5068181;28;20185;-79
2022/10/05 02:13:37;;;;;;;3.67;3.37;;;;;;;9.16;98.64;96036.69;5056674;28;20189;-79
2022/10/05 02:16:07;;;;;;;4.80;3.50;;;;;;;9.12;99.04;96030.13;5061637;28;20223;-80
2022/10/05 02:18:40;;;;;;;4.60;3.37;;;;;;;9.08;98.71;96029.53;5042883;28;20220;-80
2022/10/05 02:21:06;;;;;;;3.53;3.23;;;;;;;9.03;98.85;96033.47;5039062;28;20216;-79
2022/10/05 02:23:34;;;;;;;4.00;3.60;;;;;;;9.01;98.95;96032.75;5055044;28;20197;-79
2022/10/05 02:26:00;;;;;;;3.87;3.47;;;;;;;8.94;99.04;96037.66;5059254;28;20192;-79
2022/10/05 02:28:33;;;;;;;4.73;3.40;;;;;;;8.90;99.54;96040.59;5056267;28;20675;-79
2022/10/05 02:31:28;;;;;;;6.07;3.27;;;;;;;8.89;99.80;96041.56;5055496;28;20186;-79
2022/10/05 02:34:22;;;;;;;5.03;3.13;;;;;;;8.90;99.47;96041.41;5059455;28;20202;-79
2022/10/05 02:36:55;;;;;;;4.17;3.70;;;;;;;8.86;99.58;96050.41;5037602;28;20724;-79
2022/10/05 02:39:35;;;;;;;4.30;3.33;;;;;;;8.85;99.75;96047.94;5057358;28;20288;-79
2022/10/05 02:42:25;;;;;;;3.60;3.30;;;;;;;8.85;99.89;96063.47;5066996;28;20209;-79
2022/10/05 02:45:29;;;;;;;4.93;3.70;;;;;;;8.83;98.74;96058.41;5061744;28;20285;-79
2022/10/05 02:48:14;;;;;;;4.37;4.00;;;;;;;8.84;99.33;96048.88;5075512;28;20553;-79
2022/10/05 02:51:02;;;;;;;4.20;3.70;;;;;;;8.85;99.22;96048.75;5053627;28;20181;-79
2022/10/05 02:54:05;;;;;;;4.57;3.50;;;;;;;8.90;99.01;96053.53;5072974;28;20575;-78
2022/10/05 02:56:41;;;;;;;4.93;3.70;;;;;;;8.86;99.50;96040.03;5060037;28;20649;-78
2022/10/05 02:59:15;;;;;;;5.03;3.80;;;;;;;8.80;99.19;96058.66;5063663;28;20189;-79
2022/10/05 03:01:45;;;;;;;5.67;4.40;;;;;;;8.74;99.22;96052.19;5052469;28;20195;-78
2022/10/05 03:04:20;;;;;;;4.67;3.97;;;;;;;8.70;100.00;96047.41;5058466;28;20238;-78
2022/10/05 03:07:01;;;;;;;7.00;4.17;;;;;;;8.67;100.00;96032.94;5068498;28;20185;-78
2022/10/05 03:09:30;;;;;;;7.37;3.47;;;;;;;8.65;100.00;96037.41;5056085;28;20322;-79
2022/10/05 03:12:05;;;;;;;3.53;3.27;;;;;;;8.63;100.00;96036.72;5065868;28;20501;-77
2022/10/05 03:14:53;;;;;;;3.80;3.40;;;;;;;8.61;100.00;96036.03;5069368;28;20180;-77
2022/10/05 03:17:24;;;;;;;3.83;3.43;;;;;;;8.61;100.00;96023.06;5062142;28;20244;-78
2022/10/05 03:19:57;;;;;;;3.73;3.23;;;;;;;8.58;99.98;96020.75;5058737;28;20613;-79
2022/10/05 03:22:45;;;;;;;3.80;3.37;;;;;;;8.66;100.00;96018.34;5057587;28;20186;-78
2022/10/05 03:25:35;;;;;;;4.53;3.33;;;;;;;8.62;100.00;96013.53;5058781;28;20200;-78
2022/10/05 03:28:27;;;;;;;3.70;3.30;;;;;;;8.57;100.00;96005.31;5074844;28;20571;-79
2022/10/05 03:31:13;;;;;;;3.50;3.00;;;;;;;8.57;100.00;96000.97;5050593;28;20213;-78
2022/10/05 03:34:03;;;;;;;3.43;3.10;;;;;;;8.60;100.00;96002.50;5071310;28;20668;-79
2022/10/05 03:36:40;;;;;;;3.70;2.97;;;;;;;8.55;100.00;95997.66;5075293;28;20181;-78
2022/10/05 03:39:27;;;;;;;4.13;3.20;;;;;;;8.51;100.00;95989.34;5059810;28;20554;-79
2022/10/05 03:42:04;;;;;;;3.67;3.37;;;;;;;8.49;100.00;95990.44;5065244;28;20194;-79
2022/10/05 03:44:58;;;;;;;4.93;3.10;;;;;;;8.50;100.00;95985.13;5066449;28;20188;-78
2022/10/05 03:47:44;;;;;;;3.93;3.33;;;;;;;8.48;100.00;95984.44;5075073;28;20232;-78
2022/10/05 03:50:26;;;;;;;3.10;2.80;;;;;;;8.46;100.00;95986.28;5074868;28;20260;-78
2022/10/05 03:53:01;;;;;;;4.80;2.90;;;;;;;8.45;100.00;95981.25;5060926;28;20181;-78
2022/10/05 03:55:33;;;;;;;4.00;3.40;;;;;;;8.41;100.00;95988.44;5068177;28;20267;-79
2022/10/05 03:58:05;;;;;;;4.73;3.73;;;;;;;8.39;100.00;95986.91;5067451;28;20216;-79
2022/10/05 04:00:31;;;;;;;3.60;3.10;;;;;;;8.40;100.00;95988.59;5080258;28;20204;-79
2022/10/05 04:03:11;;;;;;;4.13;2.90;;;;;;;8.39;100.00;95984.31;5057203;28;20189;-79
2022/10/05 04:05:45;;;;;;;3.20;2.80;;;;;;;8.36;100.00;95990.56;5059226;28;20223;-78
2022/10/05 04:08:43;;;;;;;4.70;2.90;;;;;;;8.34;100.00;95989.84;5076493;28;20729;-78
2022/10/05 04:11:12;;;;;;;3.73;3.40;;;;;;;8.34;100.00;95995.03;5073241;28;20184;-78
2022/10/05 04:13:56;;;;;;;4.37;3.33;;;;;;;8.46;100.00;95975.13;5067586;28;20304;-78
2022/10/05 04:16:28;;;;;;;4.30;3.90;;;;;;;8.60;100.00;95980.00;5076291;28;20189;-78
2022/10/05 04:19:14;;;;;;;4.33;3.93;;;;;;;8.86;100.00;95979.66;5064669;28;20173;-78
2022/10/05 04:21:55;;;;;;;7.03;4.07;;;;;;;9.05;100.00;95974.59;5072819;28;20243;-78
2022/10/05 04:24:36;;;;;;;5.40;4.90;;;;;;;9.27;100.00;95971.00;5088306;28;20729;-79
2022/10/05 04:27:10;;;;;;;4.70;4.30;;;;;;;9.44;100.00;95969.59;5063891;28;20208;-78
2022/10/05 04:29:42;;;;;;;5.43;4.90;;;;;;;9.52;100.00;95969.75;5082294;28;20185;-78
2022/10/05 04:32:53;;;;;;;6.63;4.70;;;;;;;9.52;100.00;95977.53;5067706;28;20181;-78
2022/10/05 04:35:40;;;;;;;6.67;5.03;;;;;;;9.47;100.00;95985.72;5067206;28;20221;-78
2022/10/05 04:38:17;;;;;;;6.17;4.30;;;;;;;9.48;100.00;95983.94;5055987;28;20232;-79
2022/10/05 04:40:55;;;;;;;4.70;4.10;;;;;;;9.46;100.00;95988.44;5070315;28;20215;-79
2022/10/05 04:43:29;;;;;;;4.57;4.03;;;;;;;9.49;100.00;95988.16;5064028;28;20192;-78
2022/10/05 04:46:10;;;;;;;5.50;5.00;;;;;;;9.43;100.00;95993.88;5062200;28;20279;-78
2022/10/05 04:48:47;;;;;;;5.30;4.60;;;;;;;9.41;100.00;95990.59;5073218;28;20200;-78
2022/10/05 04:51:35;;;;;;;5.93;4.17;;;;;;;9.31;100.00;95990.53;5054797;28;20196;-79
2022/10/05 04:54:34;;;;;;;4.33;3.93;;;;;;;9.21;100.00;95998.28;5072399;28;20177;-78
2022/10/05 04:57:10;;;;;;;6.57;4.50;;;;;;;9.22;100.00;95999.09;5065859;28;20199;-79
2022/10/05 05:00:07;;;;;;;9.23;4.27;;;;;;;9.24;100.00;95998.00;5070766;28;20178;-80
2022/10/05 05:03:05;;;;;;;5.10;4.20;;;;;;;9.20;100.00;96007.00;5040388;28;20276;-79
2022/10/05 05:05:50;;;;;;;4.80;4.30;;;;;;;9.15;100.00;96010.91;5060513;28;20201;-77
2022/10/05 05:08:15;;;;;;;7.70;4.67;;;;;;;9.12;100.00;96009.41;5069359;28;20206;-79
2022/10/05 05:11:10;;;;;;;6.10;4.93;;;;;;;9.12;100.00;96006.00;5073501;28;21047;-78
2022/10/05 05:13:55;;;;;;;5.30;4.37;;;;;;;8.96;100.00;96004.66;5065049;28;20551;-79
2022/10/05 05:16:32;;;;;;;4.07;3.63;;;;;;;8.92;100.00;96005.03;5060600;28;20170;-78
2022/10/05 05:19:12;;;;;;;4.50;4.10;;;;;;;8.84;100.00;96000.50;5057529;28;20200;-79
2022/10/05 05:22:00;;;;;;;4.77;4.37;;;;;;;8.98;100.00;96009.72;5070102;28;20240;-79
2022/10/05 05:24:39;;;;;;;6.53;5.20;;;;;;;8.94;100.00;96018.69;5032039;28;20216;-79
2022/10/05 05:27:41;;;;;;;6.27;4.67;;;;;;;8.92;100.00;96023.16;5064665;28;20197;-78
2022/10/05 05:30:20;;;;;;;5.43;3.90;;;;;;;8.84;100.00;96017.81;5067808;28;20715;-79
2022/10/05 05:33:04;;;;;;;6.10;5.50;;;;;;;8.85;100.00;96016.88;5072338;28;20231;-78
2022/10/05 05:35:57;;;;;;;6.77;5.27;;;;;;;8.74;100.00;96022.88;5073747;28;20181;-79
2022/10/05 05:38:42;;;;;;;4.57;4.17;;;;;;;8.80;100.00;96020.63;5070407;28;20214;-79
2022/10/05 05:41:13;;;;;;;6.17;4.47;;;;;;;8.77;100.00;96028.66;5061370;28;20725;-79
2022/10/05 05:44:03;;;;;;;4.90;4.47;;;;;;;8.77;100.00;96033.84;5065117;28;20238;-78
2022/10/05 05:46:36;;;;;;;5.10;4.07;;;;;;;8.76;100.00;96042.56;5057281;28;20660;-79
2022/10/05 05:49:07;;;;;;;6.23;4.70;;;;;;;8.79;100.00;96036.31;5053554;28;20189;-79
2022/10/05 05:51:34;;;;;;;4.77;4.37;;;;;;;8.85;100.00;96033.22;5067614;28;20177;-78
2022/10/05 05:54:17;;;;;;;7.93;4.27;;;;;;;8.80;100.00;96030.16;5067953;28;20181;-79
2022/10/05 05:56:48;;;;;;;5.43;4.30;;;;;;;8.96;100.00;96024.56;5054173;28;20189;-78
2022/10/05 05:59:17;;;;;;;5.37;4.60;;;;;;;8.96;100.00;96029.75;5069439;28;20247;-79
2022/10/05 06:01:46;;;;;;;6.70;4.43;;;;;;;9.00;100.00;96034.53;5040587;28;20651;-78
2022/10/05 06:04:15;;;;;;;5.13;4.63;;;;;;;9.05;100.00;96032.41;5038308;28;20186;-79
2022/10/05 06:06:51;;;;;;;5.10;4.67;;;;;;;9.20;100.00;96038.09;5055546;28;20193;-79
2022/10/05 06:09:25;;;;;;;5.20;4.70;;;;;;;9.30;100.00;96038.16;5055533;28;20285;-79
2022/10/05 06:11:57;;;;;;;5.03;4.63;;;;;;;9.35;100.00;96044.56;5063821;28;20211;-78
2022/10/05 06:14:43;;;;;;;5.50;5.07;;;;;;;9.48;100.00;96046.97;5055433;28;20188;-79
2022/10/05 06:17:23;;;;;;;6.23;4.70;;;;;;;9.45;100.00;96055.00;5056321;28;20283;-79
2022/10/05 06:19:49;;;;;;;6.53;4.70;;;;;;;9.57;100.00;96040.19;5053067;28;20203;-79
2022/10/05 06:22:22;;;;;;;6.93;4.43;;;;;;;9.70;100.00;96050.34;5051860;28;20196;-79
2022/10/05 06:25:03;;;;;;;5.97;4.27;;;;;;;9.75;100.00;96063.75;5054689;28;20185;-79
2022/10/05 06:27:55;;;;;;;4.47;4.07;;;;;;;9.95;100.00;96062.88;5066850;28;20745;-79
2022/10/05 06:30:21;;;;;;;6.93;4.10;;;;;;;10.06;100.00;96064.53;5087804;28;20197;-78
2022/10/05 06:32:54;;;;;;;5.00;4.27;;;;;;;10.07;98.73;96079.16;5056728;28;20181;-79
2022/10/05 06:35:38;;;;;;;7.07;4.50;;;;;;;10.09;98.62;96072.09;5069094;28;20186;-78
2022/10/05 06:38:42;;;;;;;5.40;4.40;;;;;;;10.34;100.00;96076.03;5056865;28;20628;-80
2022/10/05 06:41:10;;;;;;;5.47;4.90;;;;;;;10.45;100.00;96073.31;5062177;28;20437;-79
2022/10/05 06:44:03;;;;;;;5.50;4.30;;;;;;;10.66;99.69;96079.19;5061039;28;20271;-79
2022/10/05 06:46:31;;;;;;;5.33;3.83;;;;;;;10.72;98.85;96083.88;5081720;28;20185;-79
2022/10/05 06:49:05;;;;;;;4.63;4.27;;;;;;;10.87;99.43;96081.69;5074574;28;20181;-79
2022/10/05 06:51:39;;;;;;;4.97;4.47;;;;;;;11.04;99.46;96086.22;5058751;28;20199;-79
2022/10/05 06:54:44;;;;;;;6.33;4.30;;;;;;;11.22;99.30;96080.28;5070945;28;20185;-80
2022/10/05 06:57:24;;;;;;;4.60;4.10;;;;;;;11.36;98.55;96085.06;5066234;28;20204;-79
2022/10/05 06:59:59;;;;;;;4.57;4.17;;;;;;;11.49;98.48;96093.41;5069219;28;20284;-78
2022/10/05 07:02:35;;;;;;;7.47;5.27;;;;;;;11.56;97.75;96086.66;5071625;28;20185;-79
2022/10/05 07:05:28;;;;;;;7.73;5.40;;;;;;;11.64;97.05;96096.38;5072306;28;20282;-79
2022/10/05 07:08:03;;;;;;;8.23;5.87;;;;;;;11.57;97.94;96093.53;5069370;28;20295;-78
2022/10/05 07:10:41;;;;;;;7.90;6.57;;;;;;;11.78;98.79;96095.94;5055493;28;20187;-80
2022/10/05 07:13:21;;;;;;;7.47;6.57;;;;;;;11.90;97.34;96094.00;5061414;28;20183;-79
2022/10/05 07:16:11;;;;;;;11.50;6.53;;;;;;;12.13;95.94;96099.69;5057461;28;20283;-80
2022/10/05 07:18:49;;;;;;;11.03;6.40;;;;;;;12.31;95.25;96102.34;5057342;28;20288;-79
2022/10/05 07:21:33;;;;;;;10.40;7.30;;;;;;;12.31;94.41;96097.97;5056611;28;20212;-79
2022/10/05 07:24:04;;;;;;;8.23;7.07;;;;;;;12.43;93.93;96106.38;5070733;28;20193;-79
2022/10/05 07:26:44;;;;;;;8.20;7.40;;;;;;;12.57;92.94;96103.31;5079133;28;20272;-79
2022/10/05 07:29:16;;;;;;;8.47;6.40;;;;;;;12.56;92.90;96106.88;5072247;28;20189;-79
2022/10/05 07:31:57;;;;;;;8.50;7.10;;;;;;;12.56;92.16;96106.88;5056703;28;20309;-80
2022/10/05 07:34:35;;;;;;;7.40;6.70;;;;;;;12.48;92.59;96109.38;5072614;28;20177;-79
2022/10/05 07:40:10;;;;;;;11.47;6.50;;;;;;;12.60;91.84;96110.81;5069159;28;20638;-79
2022/10/05 07:42:59;;;;;;;7.00;6.33;;;;;;;12.65;91.33;96115.59;5068548;28;20188;-78
2022/10/05 07:45:46;;;;;;;7.07;6.47;;;;;;;12.65;91.62;96113.00;5072000;28;20192;-79
2022/10/05 07:48:19;;;;;;;7.20;5.47;;;;;;;12.74;91.49;96107.72;5072088;28;20204;-79
2022/10/05 07:51:03;;;;;;;8.10;6.10;;;;;;;12.83;90.60;96108.63;5053610;28;20562;-79
2022/10/05 07:53:40;;;;;;;8.47;5.90;;;;;;;12.95;90.76;96106.63;5065940;28;20256;-79
2022/10/05 07:56:14;;;;;;;5.47;4.97;;;;;;;12.94;90.26;96105.78;5052860;28;20185;-79
2022/10/05 07:58:43;;;;;;;5.80;4.50;;;;;;;12.95;90.73;96106.63;5060835;28;20209;-79
2022/10/05 08:01:18;;;;;;;7.20;4.77;;;;;;;13.09;91.15;96110.50;5075651;28;20306;-79
2022/10/05 08:03:54;;;;;;;5.03;4.53;;;;;;;13.00;90.04;96107.81;5073104;28;20182;-79
2022/10/05 08:06:31;;;;;;;7.20;4.60;;;;;;;13.08;90.39;96109.69;5070168;28;20177;-79
2022/10/05 08:09:04;;;;;;;5.13;4.40;;;;;;;13.19;91.53;96117.31;5063268;28;20181;-79
2022/10/05 08:11:36;;;;;;;5.70;4.37;;;;;;;13.32;91.43;96104.69;5056633;28;20177;-79
2022/10/05 08:14:15;;;;;;;5.13;4.70;;;;;;;13.58;90.51;96106.50;5061472;28;20203;-79
2022/10/05 08:16:41;;;;;;;4.47;4.07;;;;;;;13.70;90.48;96102.69;5056060;28;20207;-79
2022/10/05 08:19:20;;;;;;;7.97;3.83;;;;;;;13.88;89.98;96106.06;5040240;28;20654;-80
2022/10/05 08:21:50;;;;;;;4.83;4.43;;;;;;;13.91;89.62;96111.97;5077185;28;20197;-79
2022/10/05 08:24:54;;;;;;;4.70;3.87;;;;;;;14.04;89.38;96104.50;5067636;28;20571;-78
2022/10/05 08:27:25;;;;;;;4.00;3.60;;;;;;;14.11;89.69;96101.13;5068912;28;20204;-79
2022/10/05 08:29:55;;;;;;;3.60;3.30;;;;;;;14.14;89.01;96102.63;5072840;28;20181;-79
2022/10/05 08:32:50;;;;;;;3.47;3.17;;;;;;;14.29;87.71;96100.22;5074262;28;20268;-78
2022/10/05 08:35:34;;;;;;;4.87;3.20;;;;;;;14.45;86.02;96103.75;5053373;28;20228;-79
2022/10/05 08:38:06;;;;;;;3.57;3.27;;;;;;;14.63;86.02;96105.44;5071894;28;20295;-79
2022/10/05 08:41:08;;;;;;;3.53;3.23;;;;;;;14.63;86.20;96106.25;5055156;28;20251;-79
2022/10/05 08:43:52;;;;;;;3.77;3.40;;;;;;;14.79;84.06;96110.72;5065621;28;20319;-79
2022/10/05 08:46:55;;;;;;;3.40;3.00;;;;;;;14.88;84.18;96106.34;5056400;28;20177;-78
2022/10/05 08:49:38;;;;;;;2.80;2.50;;;;;;;14.95;83.49;96109.94;5057777;28;20256;-79
2022/10/05 08:52:19;;;;;;;3.27;2.97;;;;;;;15.00;83.60;96102.41;5068586;28;20268;-79
2022/10/05 08:54:48;;;;;;;2.92;2.67;;;;;;;15.19;81.91;96111.75;5071523;28;20523;-79
2022/10/05 08:57:35;;;;;;;5.17;2.80;;;;;;;15.28;80.02;96105.53;5072332;28;20255;-79
2022/10/05 09:00:19;;;;;;;2.92;2.70;;;;;;;15.42;79.08;96106.72;5072963;28;20563;-79
2022/10/05 09:03:14;;;;;;;4.65;3.20;;;;;;;15.62;78.82;96096.75;5073043;28;20730;-79
2022/10/05 09:06:13;;;;;;;2.53;2.30;;;;;;;15.74;79.63;96098.06;5055727;28;20209;-79
2022/10/05 09:09:09;;;;;;;2.63;2.42;;;;;;;15.90;77.73;96098.00;5066537;28;20217;-79
2022/10/05 09:11:37;;;;;;;3.88;2.85;;;;;;;15.86;78.89;96100.16;5069813;28;20230;-78
2022/10/05 09:14:38;;;;;;;2.83;2.53;;;;;;;16.00;77.15;96092.59;5055135;28;20676;-79
2022/10/05 09:17:17;;;;;;;2.70;2.50;;;;;;;16.16;76.37;96100.41;5054907;28;20210;-79
2022/10/05 09:19:48;;;;;;;5.03;2.38;;;;;;;16.24;73.71;96097.75;5058336;28;20185;-79
2022/10/05 09:22:14;;;;;;;2.58;2.38;;;;;;;16.31;73.65;96103.97;5060561;28;20189;-79
2022/10/05 09:25:02;;;;;;;2.88;2.10;;;;;;;16.46;73.54;96104.06;5072159;28;20189;-79
2022/10/05 09:27:36;;;;;;;3.03;2.47;;;;;;;16.50;73.48;96102.72;5073933;28;20227;-79
2022/10/05 09:30:15;;;;;;;2.60;2.40;;;;;;;16.63;72.98;96108.25;5071049;28;20261;-79
2022/10/05 09:32:53;;;;;;;3.25;2.22;;;;;;;16.72;72.49;96100.38;5056935;28;20620;-79
2022/10/05 09:35:37;;;;;;;2.30;2.10;;;;;;;16.83;72.18;96097.38;5056735;28;20209;-78
2022/10/05 09:38:26;;;;;;;3.50;2.20;;;;;;;16.93;72.62;96097.94;5065305;28;20314;-79
2022/10/05 09:40:54;;;;;;;2.90;2.60;;;;;;;16.94;71.81;96095.16;5081691;28;20231;-79
2022/10/05 09:43:42;;;;;;;2.58;2.35;;;;;;;16.97;71.34;96094.81;5073237;28;20192;-79
2022/10/05 09:46:31;;;;;;;3.17;2.20;;;;;;;17.05;69.13;96088.72;5071493;28;20192;-79
2022/10/05 09:49:25;;;;;;;2.83;2.20;;;;;;;17.20;69.87;96094.81;5071707;28;20216;-79
2022/10/05 09:52:27;;;;;;;2.25;2.05;;;;;;;17.38;70.40;96088.44;5071907;28;20208;-79
2022/10/05 09:55:17;;;;;;;2.65;1.95;;;;;;;17.40;69.14;96094.34;5070008;28;20197;-79
2022/10/05 09:58:01;;;;;;;2.45;2.10;;;;;;;17.39;68.22;96088.28;5068702;28;20205;-79
2022/10/05 10:00:35;;;;;;;2.30;2.10;;;;;;;17.43;68.22;96079.06;5083636;28;20206;-79
2022/10/05 10:03:43;;;;;;;4.65;2.10;;;;;;;17.53;67.77;96084.06;5072819;28;20296;-78
2022/10/05 10:06:38;;;;;;;2.20;1.90;;;;;;;17.57;65.95;96077.44;5068626;28;20192;-78
2022/10/05 10:09:40;;;;;;;2.45;1.80;;;;;;;17.74;65.04;96072.91;5062250;28;20206;-78
2022/10/05 10:12:55;;;;;;;3.38;1.83;;;;;;;17.81;64.71;96064.13;5083478;28;20192;-79
2022/10/05 10:15:39;;;;;;;2.88;1.90;;;;;;;17.87;64.60;96064.41;5070606;28;20204;-79
2022/10/05 10:18:28;;;;;;;2.08;1.65;;;;;;;17.82;65.45;96060.50;5038134;28;20205;-79
2022/10/05 10:21:20;;;;;;;4.82;2.17;;;;;;;17.90;64.39;96066.66;5070278;28;20209;-78
2022/10/05 10:24:02;;;;;;;1.80;1.70;;;;;;;18.02;64.64;96059.94;5064041;28;20185;-79
2022/10/05 10:26:54;;;;;;;2.03;1.83;;;;;;;18.17;64.24;96067.84;5068735;28;20189;-79
2022/10/05 10:29:31;;;;;;;2.15;1.77;;;;;;;18.19;64.71;96064.03;5040351;28;20194;-79
2022/10/05 10:32:15;;;;;;;5.15;2.20;;;;;;;18.30;65.28;96063.59;5055650;28;20182;-79
2022/10/05 10:35:03;;;;;;;1.90;1.80;;;;;;;18.20;64.34;96062.22;5069645;28;20200;-78
2022/10/05 10:37:57;;;;;;;4.68;1.92;;;;;;;18.39;64.40;96059.88;5049748;28;20224;-79
2022/10/05 10:40:29;;;;;;;3.35;1.98;;;;;;;18.39;65.91;96054.59;5070999;28;20206;-79
2022/10/05 10:42:55;;;;;;;4.32;1.73;;;;;;;18.50;65.00;96055.94;5059696;28;20189;-79
2022/10/05 10:45:42;;;;;;;2.47;2.30;;;;;;;18.57;64.77;96059.47;5071317;28;20209;-79
2022/10/05 10:48:30;;;;;;;3.10;2.25;;;;;;;18.71;64.13;96059.63;5070860;28;20201;-79
2022/10/05 10:51:12;;;;;;;3.20;2.03;;;;;;;18.78;62.97;96061.34;5091918;28;20599;-80
2022/10/05 10:54:14;;;;;;;2.50;1.85;;;;;;;18.85;62.66;96056.97;5064631;28;20174;-80
2022/10/05 10:56:59;;;;;;;2.33;1.58;;;;;;;18.92;63.03;96059.69;5059901;28;20549;-79
2022/10/05 10:59:43;;;;;;;3.15;2.13;;;;;;;19.04;64.23;96052.09;5067060;28;20259;-80
2022/10/05 11:02:37;;;;;;;3.63;1.90;;;;;;;19.09;62.78;96053.16;5072557;28;20196;-79
2022/10/05 11:05:33;;;;;;;2.33;1.80;;;;;;;19.12;63.02;96054.59;5052495;28;20190;-79
2022/10/05 11:08:27;;;;;;;2.10;1.88;;;;;;;19.20;63.29;96051.84;5061448;28;20211;-78
2022/10/05 11:11:13;;;;;;;1.83;1.73;;;;;;;19.39;63.30;96047.75;5065993;28;20177;-79
2022/10/05 11:14:01;;;;;;;2.85;2.08;;;;;;;19.48;63.26;96043.97;5058294;28;20178;-80
2022/10/05 11:16:45;;;;;;;3.67;2.20;;;;;;;19.32;63.21;96045.06;5052823;28;20182;-78
2022/10/05 11:19:19;;;;;;;3.25;2.17;;;;;;;19.38;63.00;96043.50;5058155;28;20336;-78
2022/10/05 11:21:58;;;;;;;2.63;2.30;;;;;;;19.49;63.08;96035.06;5059712;28;20206;-78
2022/10/05 11:24:49;;;;;;;2.45;2.13;;;;;;;19.64;64.12;96041.09;5062648;28;20184;-80
2022/10/05 11:27:49;;;;;;;2.55;2.35;;;;;;;19.67;64.05;96040.69;5067649;28;20235;-79
2022/10/05 11:30:30;;;;;;;3.88;2.53;;;;;;;19.68;63.84;96041.50;5093012;28;20197;-78
2022/10/05 11:33:14;;;;;;;4.22;2.28;;;;;;;19.71;62.60;96041.16;5072746;28;20221;-79
2022/10/05 11:36:08;;;;;;;3.88;2.40;;;;;;;19.79;61.66;96041.00;5081169;28;20190;-78
2022/10/05 11:38:56;;;;;;;3.78;2.65;;;;;;;19.69;63.46;96028.16;5079608;28;20311;-79
2022/10/05 11:41:40;;;;;;;2.25;2.05;;;;;;;19.89;63.45;96030.13;5072367;28;20262;-79
2022/10/05 11:44:34;;;;;;;4.03;2.40;;;;;;;20.04;62.25;96031.59;5078349;28;20213;-80
2022/10/05 11:47:08;;;;;;;3.78;2.55;;;;;;;20.14;61.37;96033.88;5058516;28;20205;-81
2022/10/05 11:49:45;;;;;;;2.25;2.05;;;;;;;20.18;61.34;96035.13;5057600;28;20185;-79
2022/10/05 11:52:27;;;;;;;3.45;2.42;;;;;;;20.16;61.91;96031.06;5071346;28;20199;-77
2022/10/05 11:55:01;;;;;;;2.92;2.60;;;;;;;20.22;61.50;96025.81;5070299;28;20188;-77
2022/10/05 11:57:45;;;;;;;4.13;2.22;;;;;;;20.15;62.10;96024.19;5059149;28;20201;-77
2022/10/05 12:00:20;;;;;;;2.53;2.17;;;;;;;20.16;61.63;96023.16;5070859;28;20292;-76
2022/10/05 12:03:09;;;;;;;2.40;2.20;;;;;;;20.00;60.77;96027.75;5054538;28;20199;-75
2022/10/05 12:06:00;;;;;;;2.15;1.95;;;;;;;20.03;60.10;96029.97;5064942;28;20181;-76
2022/10/05 12:08:43;;;;;;;4.38;2.40;;;;;;;20.19;60.84;96020.94;5069791;28;20247;-76
2022/10/05 12:11:33;;;;;;;2.30;2.10;;;;;;;20.38;59.70;96027.31;5062134;28;20193;-76
2022/10/05 12:14:04;;;;;;;2.42;2.22;;;;;;;20.42;59.10;96025.91;5071734;28;20199;-76
2022/10/05 12:16:34;;;;;;;2.72;2.30;;;;;;;20.53;58.57;96029.84;5070424;28;20906;-77
2022/10/05 12:19:07;;;;;;;2.38;2.20;;;;;;;20.56;58.33;96026.78;5057461;28;20665;-76
2022/10/05 12:21:43;;;;;;;2.70;2.05;;;;;;;20.59;58.99;96021.94;5053236;28;20254;-76
2022/10/05 12:24:28;;;;;;;2.33;2.10;;;;;;;20.62;58.57;96016.28;5069615;28;20178;-77
2022/10/05 12:26:57;;;;;;;2.20;2.05;;;;;;;20.59;58.75;96016.69;5056979;28;20205;-76
2022/10/05 12:29:41;;;;;;;2.05;1.88;;;;;;;20.40;59.38;96017.38;5055409;28;20205;-80
2022/10/05 12:32:10;;;;;;;3.42;2.00;;;;;;;20.30;59.08;96014.28;5054861;28;20542;-76
2022/10/05 12:34:56;;;;;;;2.28;2.08;;;;;;;20.51;59.90;96018.69;5053225;28;20273;-78
2022/10/05 12:37:36;;;;;;;2.80;2.10;;;;;;;20.52;58.50;96018.47;5069334;28;20280;-78
2022/10/05 12:40:05;;;;;;;2.92;1.80;;;;;;;20.50;58.06;96014.41;5063922;28;20261;-78
2022/10/05 12:42:37;;;;;;;3.55;2.33;;;;;;;20.73;57.88;96014.06;5068932;28;20264;-78